Time;durP1;ratioP1;P1;durP2;ratioP2;P2;SDS_P1;SDS_P2;PMS_P1;PMS_P2;Temp;Humidity;BMP_temperature;BMP_pressure;BME280_temperature;BME280_humidity;BME280_pressure;Samples;Min_cycle;Max_cycle;Signal;HPM_P1;HPM_P2
2022/04/02 00:01:13;;;;;;;13.18;9.65;;;20.70;63.00;;;;;;5008284;28;20113;-71
2022/04/02 00:03:39;;;;;;;10.23;8.70;;;20.70;63.00;;;;;;5006676;28;20025;-72
2022/04/02 00:06:06;;;;;;;11.77;7.18;;;20.70;63.00;;;;;;5005802;28;20037;-72
2022/04/02 00:08:34;;;;;;;10.48;7.13;;;20.60;63.00;;;;;;5006998;28;20026;-72
2022/04/02 00:11:01;;;;;;;8.15;7.03;;;20.60;63.10;;;;;;5005773;28;20026;-71
2022/04/02 00:13:30;;;;;;;6.00;5.43;;;20.60;63.20;;;;;;5005714;28;20026;-71
2022/04/02 00:15:58;;;;;;;9.52;6.22;;;20.60;63.40;;;;;;5006954;28;20103;-71
2022/04/02 00:18:24;;;;;;;9.73;6.72;;;20.60;63.50;;;;;;5005716;28;20022;-71
2022/04/02 00:20:51;;;;;;;8.90;6.30;;;20.60;63.50;;;;;;5003608;28;20030;-72
2022/04/02 00:26:03;;;;;;;9.87;6.10;;;20.60;63.70;;;;;;5004878;28;20444;-71
2022/04/02 00:28:30;;;;;;;8.20;5.75;;;20.60;63.60;;;;;;5004955;28;20068;-71
2022/04/02 00:30:56;;;;;;;8.98;6.05;;;20.60;63.80;;;;;;5003911;28;20022;-71
2022/04/02 00:33:23;;;;;;;7.88;5.88;;;20.60;63.80;;;;;;5005465;28;20026;-71
2022/04/02 00:35:49;;;;;;;5.82;5.22;;;20.60;63.70;;;;;;5007155;28;20026;-72
2022/04/02 00:38:16;;;;;;;5.00;4.30;;;20.60;63.60;;;;;;5005292;28;20026;-71
2022/04/02 00:40:42;;;;;;;7.28;4.90;;;20.50;63.50;;;;;;5003288;28;20103;-72
2022/04/02 00:43:24;;;;;;;10.40;4.70;;;20.50;63.40;;;;;;5007389;28;20023;-72
2022/04/02 00:45:51;;;;;;;11.98;3.90;;;20.50;63.80;;;;;;5006421;28;20060;-71
2022/04/02 00:48:19;;;;;;;4.65;2.88;;;20.50;63.80;;;;;;5006559;28;20414;-72
2022/04/02 00:50:47;;;;;;;5.57;3.20;;;20.50;63.60;;;;;;5005171;28;20538;-72
2022/04/02 00:53:15;;;;;;;2.50;2.30;;;20.50;63.40;;;;;;5007656;28;20026;-72
2022/04/02 00:55:45;;;;;;;6.80;1.88;;;20.50;63.20;;;;;;5004664;28;20446;-72
2022/04/02 00:58:12;;;;;;;7.20;1.85;;;20.50;62.90;;;;;;5004856;28;20033;-71
2022/04/02 01:00:42;;;;;;;1.88;1.48;;;20.50;62.60;;;;;;5005126;28;20101;-71
2022/04/02 01:03:11;;;;;;;2.72;1.20;;;20.50;62.10;;;;;;5009947;28;20822;-71
2022/04/02 01:05:41;;;;;;;3.50;1.20;;;20.50;61.70;;;;;;5010801;28;20103;-71
2022/04/02 01:08:08;;;;;;;3.03;1.15;;;20.50;61.40;;;;;;5009727;28;20073;-71
2022/04/02 01:10:38;;;;;;;2.15;1.02;;;20.50;61.20;;;;;;5008752;28;20029;-71
2022/04/02 01:13:06;;;;;;;3.55;1.50;;;20.50;60.90;;;;;;5007405;28;20022;-71
2022/04/02 01:15:33;;;;;;;2.42;1.30;;;20.50;60.60;;;;;;5010579;28;20070;-71
2022/04/02 01:17:59;;;;;;;4.90;1.45;;;20.50;60.50;;;;;;5010511;28;20045;-71
2022/04/02 01:20:29;;;;;;;1.55;1.00;;;20.50;60.30;;;;;;5010503;28;20531;-71
2022/04/02 01:22:57;;;;;;;10.48;2.15;;;20.40;60.10;;;;;;5010953;28;20018;-71
2022/04/02 01:25:23;;;;;;;3.33;1.52;;;20.40;60.00;;;;;;5008550;28;20500;-72
2022/04/02 01:27:50;;;;;;;1.77;1.35;;;20.40;60.10;;;;;;5010162;28;20069;-72
2022/04/02 01:30:16;;;;;;;6.00;1.70;;;20.40;60.20;;;;;;5003818;28;20072;-72
2022/04/02 01:32:43;;;;;;;5.15;1.67;;;20.40;60.40;;;;;;5010689;28;20114;-72
2022/04/02 01:35:11;;;;;;;3.90;1.73;;;20.40;60.60;;;;;;5005427;28;20026;-71
2022/04/02 01:37:38;;;;;;;9.50;2.60;;;20.40;60.80;;;;;;5008217;28;20056;-71
2022/04/02 01:40:07;;;;;;;3.35;1.70;;;20.30;61.00;;;;;;5010741;28;20029;-72
2022/04/02 01:42:33;;;;;;;2.08;1.48;;;20.30;61.10;;;;;;5009854;28;20574;-71
2022/04/02 01:45:00;;;;;;;7.15;2.47;;;20.30;61.20;;;;;;5009463;28;20065;-71
2022/04/02 01:47:27;;;;;;;7.55;2.47;;;20.30;61.30;;;;;;5008387;28;20025;-71
2022/04/02 01:49:54;;;;;;;3.30;1.70;;;20.30;61.40;;;;;;5009575;28;20029;-71
2022/04/02 01:52:21;;;;;;;5.43;2.00;;;20.30;61.60;;;;;;5009287;28;20026;-72
2022/04/02 01:54:49;;;;;;;8.70;1.63;;;20.30;61.70;;;;;;5000759;28;20540;-72
2022/04/02 01:57:17;;;;;;;4.40;1.85;;;20.30;62.00;;;;;;5008840;28;20021;-71
2022/04/02 01:59:49;;;;;;;4.03;1.80;;;20.30;62.20;;;;;;5008445;28;20401;-71
2022/04/02 02:02:20;;;;;;;4.95;1.48;;;20.30;62.30;;;;;;5007887;28;20030;-71
2022/04/02 02:04:46;;;;;;;11.13;1.70;;;20.30;62.40;;;;;;5007431;28;20044;-71
2022/04/02 02:07:13;;;;;;;2.65;1.88;;;20.30;62.40;;;;;;5007960;28;20017;-71
2022/04/02 02:09:39;;;;;;;8.48;2.17;;;20.30;62.40;;;;;;5008288;28;20721;-71
2022/04/02 02:12:06;;;;;;;3.75;1.63;;;20.30;62.30;;;;;;5005297;28;20030;-71
2022/04/02 02:14:32;;;;;;;12.98;1.30;;;20.20;62.10;;;;;;5008179;28;20057;-71
2022/04/02 02:16:59;;;;;;;5.13;1.48;;;20.20;62.00;;;;;;5006170;28;20570;-71
2022/04/02 02:19:25;;;;;;;15.18;1.70;;;20.20;62.10;;;;;;5008344;28;20366;-71
2022/04/02 02:21:52;;;;;;;6.50;1.30;;;20.30;62.20;;;;;;5004078;28;20125;-71
2022/04/02 02:24:19;;;;;;;5.88;1.00;;;20.20;62.10;;;;;;5008619;28;20037;-71
2022/04/02 02:26:46;;;;;;;7.63;2.38;;;20.20;62.10;;;;;;5003059;28;20535;-71
2022/04/02 02:29:12;;;;;;;6.60;1.45;;;20.20;62.10;;;;;;5006516;28;20022;-71
2022/04/02 02:31:39;;;;;;;7.85;1.58;;;20.20;62.30;;;;;;5006930;28;20080;-72
2022/04/02 02:36:50;;;;;;;8.30;1.63;;;20.20;62.40;;;;;;5004754;28;20029;-71
2022/04/02 02:39:17;;;;;;;3.83;1.25;;;20.20;62.40;;;;;;5006627;28;20489;-71
2022/04/02 02:41:43;;;;;;;23.77;2.33;;;20.20;62.30;;;;;;5008685;28;20036;-71
2022/04/02 02:44:10;;;;;;;5.15;1.02;;;20.20;62.10;;;;;;5008617;28;20088;-71
2022/04/02 02:46:36;;;;;;;10.77;1.77;;;20.20;62.10;;;;;;5008121;28;20028;-71
2022/04/02 02:49:03;;;;;;;5.32;1.77;;;20.20;62.20;;;;;;5009270;28;20034;-71
2022/04/02 02:51:29;;;;;;;7.75;2.38;;;20.20;62.20;;;;;;5007850;28;20022;-72
2022/04/02 02:53:56;;;;;;;2.83;1.38;;;20.10;62.20;;;;;;5007206;28;20017;-71
2022/04/02 02:56:22;;;;;;;5.85;1.90;;;20.20;62.30;;;;;;4909588;28;2806670;-71
2022/04/02 02:58:49;;;;;;;9.43;2.42;;;20.10;62.30;;;;;;5009292;28;20018;-71
2022/04/02 03:01:16;;;;;;;7.28;2.03;;;20.10;62.30;;;;;;5005234;28;20017;-71
2022/04/02 03:03:42;;;;;;;5.85;1.40;;;20.10;62.40;;;;;;5007483;28;20359;-70
2022/04/02 03:06:09;;;;;;;6.38;1.65;;;20.20;62.50;;;;;;5008323;28;20060;-71
2022/04/02 03:08:35;;;;;;;4.18;1.38;;;20.10;62.60;;;;;;5004955;28;20030;-71
2022/04/02 03:11:02;;;;;;;6.70;1.15;;;20.10;62.70;;;;;;5004919;28;20473;-71
2022/04/02 03:13:28;;;;;;;5.03;1.67;;;20.10;62.80;;;;;;5003782;28;20048;-70
2022/04/02 03:15:55;;;;;;;9.00;2.13;;;20.10;62.90;;;;;;5004150;28;20762;-72
2022/04/02 03:18:22;;;;;;;7.53;1.58;;;20.10;63.10;;;;;;5006493;28;20022;-71
2022/04/02 03:20:48;;;;;;;10.20;2.20;;;20.10;63.20;;;;;;5005948;28;20030;-72
2022/04/02 03:23:15;;;;;;;4.93;1.50;;;20.10;63.20;;;;;;5006469;28;20028;-72
2022/04/02 03:25:42;;;;;;;12.07;1.60;;;20.10;63.30;;;;;;5006423;28;20029;-71
2022/04/02 03:28:08;;;;;;;9.65;2.38;;;20.00;63.30;;;;;;5006243;28;20026;-71
2022/04/02 03:30:35;;;;;;;5.55;1.33;;;20.10;63.50;;;;;;5005585;28;20489;-71
2022/04/02 03:33:01;;;;;;;10.27;1.60;;;20.00;63.50;;;;;;5007792;28;20026;-71
2022/04/02 03:35:28;;;;;;;6.05;1.42;;;20.00;63.30;;;;;;5006909;28;20029;-72
2022/04/02 03:37:55;;;;;;;3.92;1.63;;;20.00;63.70;;;;;;5007354;28;20096;-71
2022/04/02 03:40:23;;;;;;;41.65;9.25;;;20.00;63.80;;;;;;5008046;28;20026;-70
2022/04/02 03:42:51;;;;;;;32.80;14.88;;;20.00;64.30;;;;;;5004075;28;20026;-70
2022/04/02 03:45:19;;;;;;;13.88;8.10;;;20.00;64.40;;;;;;5005690;28;20488;-69
2022/04/02 03:47:46;;;;;;;15.45;5.65;;;20.00;64.30;;;;;;5003004;28;20734;-69
2022/04/02 03:50:14;;;;;;;7.00;2.80;;;20.00;64.30;;;;;;5004884;28;20026;-71
2022/04/02 03:52:40;;;;;;;10.07;2.78;;;20.00;64.20;;;;;;5007382;28;21336;-71
2022/04/02 03:55:08;;;;;;;7.13;2.08;;;20.00;64.30;;;;;;5004896;28;20042;-71
2022/04/02 03:57:35;;;;;;;2.88;1.48;;;20.00;64.30;;;;;;5007744;28;20050;-70
2022/04/02 04:00:04;;;;;;;5.50;0.82;;;20.00;64.50;;;;;;5006361;28;20045;-70
2022/04/02 04:02:32;;;;;;;8.63;1.95;;;19.90;64.40;;;;;;5006984;28;20029;-71
2022/04/02 04:04:59;;;;;;;6.75;1.90;;;20.00;64.20;;;;;;5002272;28;20418;-70
2022/04/02 04:07:26;;;;;;;6.88;1.40;;;20.00;63.90;;;;;;5004381;28;20557;-71
2022/04/02 04:09:52;;;;;;;3.20;1.42;;;19.90;63.60;;;;;;5006007;28;20076;-70
2022/04/02 04:12:20;;;;;;;4.40;2.10;;;19.90;63.40;;;;;;5005114;28;20390;-68
2022/04/02 04:14:46;;;;;;;15.48;2.40;;;19.90;63.40;;;;;;5003915;28;20858;-72
2022/04/02 04:17:14;;;;;;;12.82;2.20;;;19.90;63.50;;;;;;5005190;28;20042;-71
2022/04/02 04:19:41;;;;;;;16.27;2.55;;;19.90;64.00;;;;;;5005746;28;20044;-71
2022/04/02 04:22:07;;;;;;;11.88;2.33;;;19.90;64.30;;;;;;5003077;28;20022;-71
2022/04/02 04:24:34;;;;;;;12.68;3.65;;;19.90;64.60;;;;;;5006336;28;20039;-71
2022/04/02 04:27:00;;;;;;;19.50;10.68;;;19.90;64.80;;;;;;5004157;28;20508;-71
2022/04/02 04:29:27;;;;;;;19.00;6.38;;;19.90;65.10;;;;;;5002902;28;20076;-71
2022/04/02 04:31:54;;;;;;;26.15;4.63;;;19.90;65.10;;;;;;5006367;28;20030;-71
2022/04/02 04:34:21;;;;;;;15.13;2.92;;;19.90;65.60;;;;;;5005573;28;20022;-72
2022/04/02 04:36:48;;;;;;;7.18;1.92;;;19.90;65.80;;;;;;5004217;28;20029;-69
2022/04/02 04:39:14;;;;;;;7.57;1.40;;;19.90;65.80;;;;;;5018349;28;20034;-71
2022/04/02 04:41:41;;;;;;;6.75;1.70;;;19.90;65.90;;;;;;5005237;28;20021;-72
2022/04/02 04:44:07;;;;;;;4.45;1.40;;;19.90;65.90;;;;;;5002219;28;20149;-71
2022/04/02 04:46:34;;;;;;;10.95;2.38;;;19.90;65.90;;;;;;5004240;28;20038;-71
2022/04/02 04:49:01;;;;;;;4.65;1.83;;;19.90;65.90;;;;;;5001241;28;20030;-71
2022/04/02 04:51:28;;;;;;;2.95;1.17;;;19.90;65.90;;;;;;5001989;28;20026;-71
2022/04/02 04:53:55;;;;;;;5.45;1.35;;;19.90;65.80;;;;;;5002575;28;20025;-70
2022/04/02 04:56:22;;;;;;;9.00;1.58;;;19.90;65.80;;;;;;5003577;28;20057;-73
2022/04/02 04:58:48;;;;;;;20.25;2.58;;;19.80;65.80;;;;;;5004061;28;20025;-70
2022/04/02 05:01:15;;;;;;;3.83;1.33;;;19.80;66.00;;;;;;4999144;28;20599;-75
2022/04/02 05:03:42;;;;;;;8.13;1.15;;;19.90;65.90;;;;;;5005197;28;20111;-72
2022/04/02 05:06:12;;;;;;;3.90;1.05;;;19.90;65.80;;;;;;5002198;28;20022;-72
2022/04/02 05:08:39;;;;;;;4.38;1.20;;;19.80;65.80;;;;;;5002851;28;20018;-72
2022/04/02 05:11:07;;;;;;;4.78;0.98;;;19.80;65.80;;;;;;5002321;28;20018;-73
2022/04/02 05:13:33;;;;;;;9.15;2.00;;;19.80;65.80;;;;;;5004372;28;20470;-71
2022/04/02 05:16:00;;;;;;;6.93;1.30;;;19.90;65.60;;;;;;5004444;28;20036;-72
2022/04/02 05:18:27;;;;;;;9.05;1.58;;;19.90;65.30;;;;;;5002724;28;20030;-73
2022/04/02 05:20:53;;;;;;;52.45;37.80;;;19.80;66.00;;;;;;5002483;28;20033;-72
2022/04/02 05:23:20;;;;;;;36.10;25.25;;;19.90;66.00;;;;;;5002572;28;20022;-72
2022/04/02 05:25:47;;;;;;;23.98;12.85;;;19.90;65.70;;;;;;5004083;28;20044;-72
2022/04/02 05:28:13;;;;;;;10.15;6.63;;;19.80;65.50;;;;;;5002787;28;20022;-74
2022/04/02 05:30:40;;;;;;;19.25;5.25;;;19.80;65.50;;;;;;5003469;28;20030;-72
2022/04/02 05:33:07;;;;;;;20.02;3.65;;;19.80;65.50;;;;;;5004464;28;20542;-73
2022/04/02 05:35:34;;;;;;;6.93;2.75;;;19.80;65.00;;;;;;4999454;28;20493;-72
2022/04/02 05:38:00;;;;;;;8.32;2.20;;;19.80;64.80;;;;;;4996968;28;20022;-71
2022/04/02 05:40:27;;;;;;;6.32;1.42;;;19.80;64.60;;;;;;5000415;28;20022;-72
2022/04/02 05:42:53;;;;;;;5.30;1.42;;;19.80;64.50;;;;;;4998579;28;20481;-73
2022/04/02 05:45:20;;;;;;;9.57;4.28;;;19.80;64.20;;;;;;4994395;28;20080;-73
2022/04/02 05:47:49;;;;;;;11.35;5.70;;;19.80;64.20;;;;;;5002205;28;20034;-72
2022/04/02 05:50:17;;;;;;;9.98;4.03;;;19.80;64.10;;;;;;5000324;28;20378;-72
2022/04/02 05:52:44;;;;;;;7.40;2.78;;;19.80;64.00;;;;;;4999487;28;20053;-71
2022/04/02 05:55:11;;;;;;;7.85;1.55;;;19.80;64.00;;;;;;4997578;28;20057;-72
2022/04/02 05:57:40;;;;;;;4.13;1.58;;;19.80;63.90;;;;;;5001059;28;20423;-72
2022/04/02 06:00:08;;;;;;;6.65;1.35;;;19.80;64.00;;;;;;5000907;28;20068;-72
2022/04/02 06:02:36;;;;;;;7.18;1.60;;;19.80;64.10;;;;;;4999772;28;20480;-72
2022/04/02 06:05:03;;;;;;;6.40;1.50;;;19.80;64.20;;;;;;5000690;28;20037;-71
2022/04/02 06:07:30;;;;;;;7.13;2.35;;;19.80;64.40;;;;;;5003084;28;20393;-72
2022/04/02 06:09:57;;;;;;;7.00;3.88;;;19.80;64.50;;;;;;4998938;28;20011;-72
2022/04/02 06:12:24;;;;;;;9.75;5.93;;;19.80;64.60;;;;;;5001975;28;20045;-71
2022/04/02 06:14:50;;;;;;;11.90;6.68;;;19.80;64.60;;;;;;4999117;28;20480;-72
2022/04/02 06:17:17;;;;;;;123.43;14.65;;;19.80;64.60;;;;;;5000084;28;20109;-70
2022/04/02 06:19:43;;;;;;;256.58;30.90;;;19.90;64.40;;;;;;5005731;28;20389;-70
2022/04/02 06:22:09;;;;;;;105.93;12.38;;;19.90;64.20;;;;;;5000203;28;20710;-70
2022/04/02 06:24:37;;;;;;;68.35;7.25;;;19.90;64.30;;;;;;5010078;28;20038;-70
2022/04/02 06:27:04;;;;;;;32.97;4.85;;;19.90;64.20;;;;;;5009078;28;20061;-69
2022/04/02 06:29:30;;;;;;;33.38;5.57;;;19.90;64.30;;;;;;5009848;28;20033;-70
2022/04/02 06:31:57;;;;;;;20.48;3.58;;;19.90;64.60;;;;;;5008823;28;20052;-70
2022/04/02 06:34:23;;;;;;;16.75;4.25;;;20.00;65.30;;;;;;5009931;28;20481;-68
2022/04/02 06:36:50;;;;;;;12.35;5.00;;;20.00;65.40;;;;;;5004472;28;20014;-69
2022/04/02 06:39:17;;;;;;;12.25;3.70;;;20.00;65.30;;;;;;5008002;28;20026;-69
2022/04/02 06:41:44;;;;;;;14.57;3.50;;;20.00;65.30;;;;;;5009046;28;20029;-69
2022/04/02 06:44:10;;;;;;;11.80;2.60;;;20.00;65.20;;;;;;5009215;28;20033;-69
2022/04/02 06:46:40;;;;;;;6.85;2.33;;;20.10;65.30;;;;;;5003789;28;20018;-68
2022/04/02 06:49:07;;;;;;;10.75;2.28;;;20.10;65.10;;;;;;5007109;28;20025;-68
2022/04/02 06:51:34;;;;;;;6.93;1.60;;;20.10;65.10;;;;;;5008324;28;20029;-66
2022/04/02 06:54:01;;;;;;;5.68;1.88;;;20.20;65.10;;;;;;5005357;28;20036;-68
2022/04/02 06:56:27;;;;;;;6.20;2.30;;;20.20;65.10;;;;;;5008608;28;20065;-70
2022/04/02 06:58:54;;;;;;;4.15;1.77;;;20.20;65.00;;;;;;5005993;28;20025;-69
2022/04/02 07:01:20;;;;;;;4.55;1.30;;;20.20;65.00;;;;;;5006217;28;20018;-69
2022/04/02 07:03:47;;;;;;;4.03;1.33;;;20.30;65.70;;;;;;5004210;28;20125;-69
2022/04/02 07:06:14;;;;;;;2.58;1.48;;;20.30;65.10;;;;;;5005429;28;20031;-71
2022/04/02 07:08:41;;;;;;;21.88;3.10;;;20.30;65.10;;;;;;5003807;28;20056;-69
2022/04/02 07:11:07;;;;;;;16.88;6.47;;;20.40;65.40;;;;;;5006735;28;20100;-70
2022/04/02 07:13:34;;;;;;;8.15;4.85;;;20.40;65.80;;;;;;5010638;28;20028;-71
2022/04/02 07:16:02;;;;;;;9.02;3.67;;;20.50;65.90;;;;;;5008469;28;20037;-71
2022/04/02 07:18:30;;;;;;;10.82;3.08;;;20.50;65.70;;;;;;5006647;28;20018;-71
2022/04/02 07:20:58;;;;;;;8.82;3.17;;;20.50;65.60;;;;;;5009221;28;20080;-70
2022/04/02 07:23:25;;;;;;;7.45;2.10;;;20.50;65.50;;;;;;5006048;28;20014;-70
2022/04/02 07:25:54;;;;;;;8.40;2.70;;;20.60;65.40;;;;;;5007525;28;20026;-71
2022/04/02 07:28:24;;;;;;;11.20;1.88;;;20.60;65.20;;;;;;5004587;28;20473;-71
2022/04/02 07:30:51;;;;;;;10.38;2.17;;;20.60;65.20;;;;;;5008269;28;20010;-71
2022/04/02 07:33:17;;;;;;;7.10;2.22;;;20.60;65.30;;;;;;5008298;28;20381;-70
2022/04/02 07:35:57;;;;;;;7.97;2.25;;;20.70;65.30;;;;;;5006676;28;20021;-71
2022/04/02 07:38:46;;;;;;;14.15;3.40;;;20.70;65.40;;;;;;5007873;28;20029;-71
2022/04/02 07:41:31;;;;;;;9.80;2.15;;;20.70;65.60;;;;;;5004562;28;20014;-70
2022/04/02 07:44:08;;;;;;;7.10;2.45;;;20.80;65.50;;;;;;5009454;28;20493;-70
2022/04/02 07:46:38;;;;;;;11.18;2.10;;;20.90;65.60;;;;;;5008398;28;20084;-71
2022/04/02 07:49:09;;;;;;;5.63;1.63;;;20.90;65.50;;;;;;5007799;28;20056;-71
2022/04/02 07:51:39;;;;;;;8.90;2.00;;;20.90;65.60;;;;;;5006497;28;20037;-70
2022/04/02 07:54:09;;;;;;;10.95;1.65;;;20.90;65.60;;;;;;5006831;28;20014;-70
2022/04/02 07:56:43;;;;;;;11.90;3.28;;;21.00;65.60;;;;;;5008008;28;20764;-70
2022/04/02 07:59:12;;;;;;;11.98;2.03;;;21.00;65.50;;;;;;5003708;28;20042;-70
2022/04/02 08:01:40;;;;;;;7.90;1.80;;;21.10;65.70;;;;;;5008226;28;20693;-70
2022/04/02 08:04:08;;;;;;;7.78;2.03;;;21.10;66.00;;;;;;5008397;28;20097;-69
2022/04/02 08:06:35;;;;;;;6.82;1.58;;;21.10;65.80;;;;;;5006277;28;20038;-70
2022/04/02 08:09:03;;;;;;;5.68;1.77;;;21.20;65.80;;;;;;5006763;28;20026;-70
2022/04/02 08:11:31;;;;;;;7.72;2.05;;;21.20;65.70;;;;;;5005634;28;20024;-70
2022/04/02 08:13:59;;;;;;;12.18;2.78;;;21.30;65.60;;;;;;5005524;28;20030;-70
2022/04/02 08:16:26;;;;;;;14.38;1.92;;;21.30;65.40;;;;;;5007465;28;20469;-70
2022/04/02 08:18:56;;;;;;;7.40;1.70;;;21.30;65.10;;;;;;5004132;28;20024;-70
2022/04/02 08:21:23;;;;;;;9.30;1.80;;;21.40;65.00;;;;;;5006886;28;20017;-70
2022/04/02 08:23:49;;;;;;;7.88;1.70;;;21.40;64.70;;;;;;5006730;28;20014;-70
2022/04/02 08:26:56;;;;;;;7.28;1.40;;;21.50;64.70;;;;;;5006656;28;20026;-70
2022/04/02 08:29:44;;;;;;;5.72;1.55;;;21.50;64.40;;;;;;5007566;28;20030;-70
2022/04/02 08:32:26;;;;;;;4.95;1.63;;;21.60;64.30;;;;;;5007207;28;20018;-69
2022/04/02 08:35:10;;;;;;;9.00;1.52;;;21.60;64.30;;;;;;5007340;28;20021;-70
2022/04/02 08:38:09;;;;;;;11.30;1.52;;;21.70;64.20;;;;;;5006187;28;20018;-70
2022/04/02 08:40:51;;;;;;;12.90;2.88;;;21.70;64.00;;;;;;5007223;28;20025;-70
2022/04/02 08:43:42;;;;;;;8.20;2.13;;;21.80;63.80;;;;;;5007706;28;20026;-69
2022/04/02 08:46:36;;;;;;;5.40;1.42;;;21.80;63.50;;;;;;5003570;28;20564;-70
2022/04/02 08:49:05;;;;;;;5.65;1.88;;;21.90;63.20;;;;;;5005437;28;20034;-71
2022/04/02 08:52:12;;;;;;;13.18;4.18;;;21.90;62.60;;;;;;5005662;28;20511;-73
2022/04/02 08:54:56;;;;;;;11.32;2.75;;;22.00;62.20;;;;;;4997931;28;20030;-69
2022/04/02 08:57:32;;;;;;;10.80;2.87;;;22.00;61.90;;;;;;5006988;28;20014;-68
2022/04/02 09:00:12;;;;;;;8.68;2.28;;;22.00;61.60;;;;;;5000591;28;20341;-71
2022/04/02 09:03:16;;;;;;;9.00;1.55;;;22.10;61.50;;;;;;5005270;28;20568;-69
2022/04/02 09:06:07;;;;;;;3.03;1.38;;;22.10;61.10;;;;;;5006918;28;20037;-69
2022/04/02 09:08:42;;;;;;;9.43;1.63;;;22.20;60.90;;;;;;5007021;28;20065;-71
2022/04/02 09:11:15;;;;;;;4.63;2.08;;;22.20;60.80;;;;;;5004806;28;20512;-70
2022/04/02 09:13:59;;;;;;;6.28;1.48;;;22.20;60.80;;;;;;5006260;28;20026;-70
2022/04/02 09:16:53;;;;;;;5.47;1.30;;;22.20;60.40;;;;;;5004058;28;20031;-71
2022/04/02 09:19:31;;;;;;;3.85;1.30;;;22.30;59.90;;;;;;5006083;28;20022;-70
2022/04/02 09:22:06;;;;;;;5.30;1.30;;;22.30;59.70;;;;;;5007019;28;20021;-71
2022/04/02 09:24:57;;;;;;;9.90;2.00;;;22.40;59.50;;;;;;5007792;28;20038;-70
2022/04/02 09:27:49;;;;;;;3.83;1.10;;;22.40;59.50;;;;;;5007248;28;20026;-69
2022/04/02 09:30:52;;;;;;;7.07;1.58;;;22.50;59.20;;;;;;5009976;28;20025;-71
2022/04/02 09:34:00;;;;;;;8.02;1.35;;;22.60;58.80;;;;;;5008210;28;20060;-70
2022/04/02 09:36:48;;;;;;;4.32;1.05;;;22.60;58.50;;;;;;4990617;28;20042;-69
2022/04/02 09:39:43;;;;;;;10.60;2.80;;;22.70;58.20;;;;;;5008231;28;20489;-70
2022/04/02 09:42:25;;;;;;;5.13;1.50;;;22.70;57.50;;;;;;5006452;28;20045;-72
2022/04/02 09:45:05;;;;;;;5.10;1.48;;;22.80;57.90;;;;;;5010794;28;20045;-72
2022/04/02 09:47:49;;;;;;;15.13;1.42;;;22.80;57.90;;;;;;5009147;28;20513;-69
2022/04/02 09:50:17;;;;;;;14.18;2.30;;;22.90;58.60;;;;;;5008900;28;20017;-70
2022/04/02 09:52:46;;;;;;;6.60;1.23;;;22.90;58.50;;;;;;5011733;28;20041;-71
2022/04/02 09:55:14;;;;;;;3.88;1.75;;;22.90;57.80;;;;;;5009748;28;20041;-71
2022/04/02 09:57:53;;;;;;;9.18;2.13;;;23.00;57.80;;;;;;5010772;28;20502;-71
2022/04/02 10:00:20;;;;;;;5.15;1.08;;;23.00;57.40;;;;;;5009701;28;20483;-70
2022/04/02 10:03:05;;;;;;;2.25;1.67;;;23.10;56.40;;;;;;5007633;28;20085;-71
2022/04/02 10:06:04;;;;;;;5.32;0.85;;;23.10;55.10;;;;;;5010535;28;20038;-71
2022/04/02 10:09:03;;;;;;;3.67;0.90;;;23.20;54.30;;;;;;5007063;28;20030;-70
2022/04/02 10:11:31;;;;;;;5.38;0.88;;;23.30;54.80;;;;;;5008293;28;20116;-69
2022/04/02 10:14:00;;;;;;;7.18;1.23;;;23.40;54.40;;;;;;5004863;28;20022;-71
2022/04/02 10:16:28;;;;;;;3.55;0.68;;;23.40;53.90;;;;;;5009587;28;20469;-71
2022/04/02 10:18:57;;;;;;;3.47;0.88;;;23.50;53.40;;;;;;5010854;28;20069;-71
2022/04/02 10:21:24;;;;;;;4.13;0.98;;;23.50;53.40;;;;;;5008290;28;20083;-70
2022/04/02 10:24:06;;;;;;;4.47;0.77;;;23.60;53.30;;;;;;5009625;28;20084;-72
2022/04/02 10:26:39;;;;;;;10.68;1.00;;;23.60;52.60;;;;;;5006672;28;20030;-72
2022/04/02 10:29:15;;;;;;;3.00;1.33;;;23.70;53.30;;;;;;5008785;28;20034;-71
2022/04/02 10:31:59;;;;;;;8.65;1.88;;;23.70;53.40;;;;;;5009451;28;20034;-71
2022/04/02 10:34:38;;;;;;;2.13;0.88;;;23.80;53.80;;;;;;5005572;28;20030;-71
2022/04/02 10:37:14;;;;;;;1.73;1.15;;;23.90;52.90;;;;;;5007884;28;20105;-73
2022/04/02 10:39:48;;;;;;;3.15;1.02;;;23.90;52.70;;;;;;5010905;28;20569;-74
2022/04/02 10:42:19;;;;;;;6.45;1.45;;;24.00;52.40;;;;;;5004750;28;20092;-72
2022/04/02 10:44:59;;;;;;;8.32;1.50;;;24.00;52.80;;;;;;5008250;28;20378;-74
2022/04/02 10:47:30;;;;;;;5.68;1.20;;;24.00;53.20;;;;;;5006254;28;20101;-69
2022/04/02 10:50:05;;;;;;;3.72;1.90;;;24.10;53.50;;;;;;5006306;28;20214;-74
2022/04/02 10:52:32;;;;;;;14.93;2.10;;;24.10;53.70;;;;;;5008698;28;20022;-70
2022/04/02 10:54:59;;;;;;;5.05;1.65;;;24.10;54.00;;;;;;5004302;28;20578;-72
2022/04/02 10:57:32;;;;;;;3.42;1.88;;;24.20;53.80;;;;;;5007342;28;20021;-69
2022/04/02 11:00:10;;;;;;;10.43;2.30;;;24.20;53.10;;;;;;5005868;28;20029;-71
2022/04/02 11:02:42;;;;;;;7.22;2.30;;;24.30;53.80;;;;;;5007642;28;20101;-70
2022/04/02 11:05:17;;;;;;;4.60;1.95;;;24.30;53.90;;;;;;5006873;28;20076;-74
2022/04/02 11:07:44;;;;;;;;;;;24.40;53.80;;;;;;5006803;28;20484;-72
2022/04/02 11:10:19;;;;;;;12.10;2.60;;;24.40;53.20;;;;;;5006446;28;20308;-74
2022/04/02 11:12:46;;;;;;;16.40;2.72;;;24.40;53.20;;;;;;5009942;28;20037;-72
2022/04/02 11:15:14;;;;;;;2.80;1.23;;;24.50;53.40;;;;;;5007739;28;20049;-69
2022/04/02 11:17:54;;;;;;;9.48;1.77;;;24.60;53.40;;;;;;5004925;28;20033;-70
2022/04/02 11:20:26;;;;;;;4.85;2.00;;;24.60;53.10;;;;;;5003975;28;20428;-70
2022/04/02 11:22:54;;;;;;;7.70;3.63;;;24.60;53.10;;;;;;5007363;28;20041;-69
2022/04/02 11:25:24;;;;;;;8.65;2.65;;;24.70;53.20;;;;;;5007415;28;20038;-71
2022/04/02 11:27:54;;;;;;;5.07;3.65;;;24.70;53.10;;;;;;5006945;28;20063;-72
2022/04/02 11:30:22;;;;;;;11.57;3.03;;;24.80;53.50;;;;;;5005112;28;20105;-70
2022/04/02 11:32:50;;;;;;;18.23;3.20;;;24.90;52.90;;;;;;5007649;28;20045;-73
2022/04/02 11:35:24;;;;;;;16.25;2.35;;;25.00;53.40;;;;;;5006174;28;20026;-70
2022/04/02 11:38:03;;;;;;;13.13;2.35;;;25.00;52.90;;;;;;5000623;28;20025;-68
2022/04/02 11:40:31;;;;;;;7.35;1.90;;;25.00;52.30;;;;;;5007947;28;20022;-68
2022/04/02 11:43:02;;;;;;;10.82;1.90;;;25.00;52.30;;;;;;5005894;28;20024;-72
2022/04/02 11:45:32;;;;;;;8.10;2.03;;;25.10;52.40;;;;;;5006855;28;20088;-72
2022/04/02 11:48:18;;;;;;;2.83;1.25;;;25.20;52.30;;;;;;5006891;28;20022;-68
2022/04/02 11:50:45;;;;;;;14.75;2.17;;;25.20;52.60;;;;;;5005822;28;20604;-72
2022/04/02 11:53:13;;;;;;;2.40;1.20;;;25.30;52.60;;;;;;5006174;28;20420;-70
2022/04/02 11:55:41;;;;;;;3.92;0.95;;;25.30;51.30;;;;;;5004068;28;20067;-72
2022/04/02 11:58:13;;;;;;;6.15;1.40;;;25.40;51.60;;;;;;5007330;28;20068;-73
2022/04/02 12:00:41;;;;;;;8.60;1.55;;;25.40;51.60;;;;;;5006334;28;20061;-71
2022/04/02 12:03:24;;;;;;;7.22;1.45;;;25.50;51.70;;;;;;5004648;28;20022;-70
2022/04/02 12:05:51;;;;;;;5.05;1.20;;;25.50;50.90;;;;;;5006905;28;20138;-71
2022/04/02 12:08:28;;;;;;;5.30;1.10;;;25.50;50.70;;;;;;5005326;28;20046;-71
2022/04/02 12:10:56;;;;;;;2.47;0.93;;;25.40;50.70;;;;;;5005353;28;20413;-71
2022/04/02 12:13:22;;;;;;;4.68;1.05;;;25.40;50.80;;;;;;5005073;28;20018;-71
2022/04/02 12:16:09;;;;;;;6.47;0.93;;;25.40;50.80;;;;;;5005240;28;20109;-70
2022/04/02 12:18:59;;;;;;;4.40;1.20;;;25.50;50.40;;;;;;5006423;28;20041;-70
2022/04/02 12:21:34;;;;;;;9.70;2.58;;;25.50;50.40;;;;;;5004109;28;20594;-70
2022/04/02 12:24:01;;;;;;;;;;;25.50;50.70;;;;;;5005080;28;20073;-70
2022/04/02 12:26:28;;;;;;;6.65;2.10;;;25.50;50.90;;;;;;5006193;28;19913;-73
2022/04/02 12:29:00;;;;;;;7.72;1.73;;;25.40;50.50;;;;;;5006288;28;20041;-74
2022/04/02 12:31:27;;;;;;;6.18;1.27;;;25.40;50.30;;;;;;5005377;28;20026;-72
2022/04/02 12:33:55;;;;;;;4.43;1.00;;;25.30;50.30;;;;;;5006204;28;20018;-70
2022/04/02 12:36:36;;;;;;;5.53;1.10;;;25.30;50.30;;;;;;5007247;28;20018;-71
2022/04/02 12:39:08;;;;;;;7.28;1.77;;;25.20;50.30;;;;;;5003432;28;20030;-71
2022/04/02 12:41:49;;;;;;;8.50;1.40;;;25.20;50.60;;;;;;5006787;28;20326;-69
2022/04/02 12:44:20;;;;;;;15.93;3.95;;;25.20;51.00;;;;;;5005885;28;20021;-69
2022/04/02 12:46:46;;;;;;;11.05;3.63;;;25.30;51.90;;;;;;5004966;28;20551;-70
2022/04/02 12:49:33;;;;;;;9.88;3.92;;;25.30;51.80;;;;;;5002896;28;20041;-75
2022/04/02 12:52:20;;;;;;;7.15;2.67;;;25.30;51.90;;;;;;5003342;28;20026;-72
2022/04/02 12:54:52;;;;;;;10.45;3.13;;;25.30;52.00;;;;;;5004057;28;20048;-71
2022/04/02 12:57:19;;;;;;;5.85;2.65;;;25.30;52.00;;;;;;5006145;28;20034;-71
2022/04/02 12:59:53;;;;;;;7.95;1.55;;;25.40;52.00;;;;;;5007110;28;20024;-72
2022/04/02 13:02:22;;;;;;;9.25;1.65;;;25.30;51.90;;;;;;5007949;28;20504;-70
2022/04/02 13:04:57;;;;;;;9.23;1.58;;;25.40;51.90;;;;;;5006388;28;20033;-71
2022/04/02 13:07:24;;;;;;;4.82;1.67;;;25.50;51.70;;;;;;5008559;28;20029;-71